createdAt,value
2018-11-29T00:02:18.691Z,6.60
2018-11-29T00:04:46.901Z,6.60
2018-11-29T00:07:15.095Z,6.50
2018-11-29T00:09:43.303Z,6.40
2018-11-29T00:12:11.509Z,6.40
2018-11-29T00:14:39.737Z,6.30
2018-11-29T00:17:07.944Z,6.40
2018-11-29T00:19:36.162Z,6.30
2018-11-29T00:22:04.389Z,6.30
2018-11-29T00:24:32.607Z,6.30
2018-11-29T00:27:00.819Z,6.30
2018-11-29T00:29:29.063Z,6.20
2018-11-29T00:31:57.287Z,6.30
2018-11-29T00:34:25.540Z,6.30
2018-11-29T00:36:53.746Z,6.40
2018-11-29T00:39:21.996Z,6.40
2018-11-29T00:41:50.236Z,6.50
2018-11-29T00:44:18.448Z,6.60
2018-11-29T00:46:46.705Z,6.40
2018-11-29T00:49:14.932Z,6.30
2018-11-29T00:51:43.160Z,6.30
2018-11-29T00:54:11.384Z,6.30
2018-11-29T00:56:39.620Z,6.30
2018-11-29T00:59:07.852Z,6.20
2018-11-29T01:01:36.087Z,6.20
2018-11-29T01:04:04.319Z,6.10
2018-11-29T01:06:32.547Z,6.10
2018-11-29T01:09:00.785Z,6.10
2018-11-29T01:11:29.009Z,6.10
2018-11-29T01:13:57.249Z,6.20
2018-11-29T01:16:25.487Z,6.30
2018-11-29T01:18:53.711Z,6.40
2018-11-29T01:21:22.000Z,6.30
2018-11-29T01:23:50.261Z,6.30
2018-11-29T01:26:18.491Z,6.30
2018-11-29T01:28:46.721Z,6.30
2018-11-29T01:31:14.960Z,6.20
2018-11-29T01:33:43.184Z,6.20
2018-11-29T01:36:11.433Z,6.20
2018-11-29T01:38:39.655Z,6.30
2018-11-29T01:41:07.893Z,6.30
2018-11-29T01:43:36.128Z,6.30
2018-11-29T01:46:04.352Z,6.30
2018-11-29T01:48:32.598Z,6.30
2018-11-29T01:51:00.832Z,6.30
2018-11-29T01:53:29.049Z,6.30
2018-11-29T01:55:57.309Z,6.30
2018-11-29T01:58:25.551Z,6.30
2018-11-29T02:00:53.795Z,6.40
2018-11-29T02:03:22.031Z,6.40
2018-11-29T02:05:50.272Z,6.30
2018-11-29T02:08:18.508Z,6.40
2018-11-29T02:10:50.594Z,6.30
2018-11-29T02:13:19.693Z,6.30
2018-11-29T02:15:47.952Z,6.30
2018-11-29T02:18:16.143Z,6.30
2018-11-29T02:20:44.339Z,6.30
2018-11-29T02:23:12.541Z,6.30
2018-11-29T02:25:40.753Z,6.20
2018-11-29T02:28:08.969Z,6.10
2018-11-29T02:30:37.162Z,6.10
2018-11-29T02:33:05.426Z,6.10
2018-11-29T02:35:33.616Z,6.10
2018-11-29T02:38:02.157Z,6.10
2018-11-29T02:40:30.347Z,6.00
2018-11-29T02:42:58.544Z,5.90
2018-11-29T02:45:26.737Z,5.90
2018-11-29T02:47:54.935Z,5.90
2018-11-29T02:50:23.131Z,5.90
2018-11-29T02:52:51.336Z,5.90
2018-11-29T02:55:19.520Z,6.00
2018-11-29T02:57:47.714Z,5.90
2018-11-29T03:00:17.578Z,5.80
2018-11-29T03:02:45.767Z,5.90
2018-11-29T03:05:14.084Z,5.90
2018-11-29T03:07:42.296Z,5.90
2018-11-29T03:10:13.459Z,6.00
2018-11-29T03:12:42.027Z,5.90
2018-11-29T03:15:12.149Z,5.90
2018-11-29T03:17:40.412Z,6.10
2018-11-29T03:20:10.022Z,6.10
2018-11-29T03:22:38.246Z,6.00
2018-11-29T03:25:14.601Z,6.00
2018-11-29T03:27:42.979Z,5.90
2018-11-29T03:30:13.018Z,5.80
2018-11-29T03:32:41.244Z,5.70
2018-11-29T03:35:10.435Z,5.70
2018-11-29T03:37:38.657Z,5.70
2018-11-29T03:40:10.481Z,5.70
2018-11-29T03:42:38.683Z,5.60
2018-11-29T03:45:08.556Z,5.70
2018-11-29T03:47:37.043Z,5.60
2018-11-29T03:50:08.587Z,5.70
2018-11-29T03:52:36.802Z,5.60
2018-11-29T03:55:05.955Z,5.60
2018-11-29T03:57:34.161Z,5.60
2018-11-29T04:00:02.352Z,5.60
2018-11-29T04:02:30.589Z,5.70
2018-11-29T04:04:58.780Z,5.60
2018-11-29T04:07:26.975Z,5.70
2018-11-29T04:09:55.164Z,5.60
2018-11-29T04:12:23.360Z,5.60
2018-11-29T04:14:51.554Z,5.70
2018-11-29T04:17:19.756Z,5.60
2018-11-29T04:19:47.955Z,5.50
2018-11-29T04:22:16.168Z,5.60
2018-11-29T04:24:44.365Z,5.50
2018-11-29T04:27:12.574Z,5.50
2018-11-29T04:29:40.768Z,5.50
2018-11-29T04:32:08.979Z,5.30
2018-11-29T04:34:37.184Z,5.20
2018-11-29T04:37:05.423Z,5.00
2018-11-29T04:39:33.612Z,4.90
2018-11-29T04:42:01.813Z,4.80
2018-11-29T04:44:30.005Z,4.70
2018-11-29T04:46:58.208Z,4.60
2018-11-29T04:49:26.416Z,4.60
2018-11-29T04:51:54.622Z,4.50
2018-11-29T04:54:22.821Z,4.50
2018-11-29T04:56:51.031Z,4.70
2018-11-29T04:59:19.216Z,4.90
2018-11-29T05:01:47.433Z,5.00
2018-11-29T05:04:15.622Z,4.90
2018-11-29T05:06:43.838Z,4.90
2018-11-29T05:09:12.032Z,4.90
2018-11-29T05:11:40.233Z,4.80
2018-11-29T05:14:08.433Z,4.70
2018-11-29T05:16:36.620Z,4.60
2018-11-29T05:19:04.857Z,4.40
2018-11-29T05:21:33.040Z,4.30
2018-11-29T05:24:01.240Z,4.20
2018-11-29T05:26:29.437Z,4.10
2018-11-29T05:28:57.636Z,4.10
2018-11-29T05:31:25.849Z,4.10
2018-11-29T05:33:54.062Z,4.30
2018-11-29T05:36:22.269Z,4.40
2018-11-29T05:38:50.471Z,4.40
2018-11-29T05:41:18.735Z,4.40
2018-11-29T05:43:46.945Z,4.40
2018-11-29T05:46:15.156Z,4.40
2018-11-29T05:48:43.363Z,4.40
2018-11-29T05:51:11.580Z,4.30
2018-11-29T05:53:39.780Z,4.30
2018-11-29T05:56:07.984Z,4.20
2018-11-29T05:58:36.240Z,4.20
2018-11-29T06:01:09.875Z,4.20
2018-11-29T06:03:38.077Z,4.10
2018-11-29T06:06:06.748Z,4.10
2018-11-29T06:08:34.949Z,4.20
2018-11-29T06:11:03.133Z,4.10
2018-11-29T06:13:31.335Z,4.00
2018-11-29T06:15:59.537Z,4.00
2018-11-29T06:18:27.753Z,3.90
2018-11-29T06:20:55.981Z,4.00
2018-11-29T06:23:24.219Z,4.00
2018-11-29T06:25:52.421Z,3.90
2018-11-29T06:28:20.632Z,3.80
2018-11-29T06:30:48.856Z,3.60
2018-11-29T06:33:17.077Z,3.60
2018-11-29T06:35:45.294Z,3.60
2018-11-29T06:38:13.518Z,3.60
2018-11-29T06:40:41.731Z,3.80
2018-11-29T06:43:09.948Z,3.90
2018-11-29T06:45:38.164Z,3.90
2018-11-29T06:48:06.922Z,3.80
2018-11-29T06:50:35.132Z,3.70
2018-11-29T06:53:03.365Z,3.90
2018-11-29T06:55:31.577Z,4.00
2018-11-29T06:57:59.841Z,4.10
2018-11-29T07:00:29.924Z,4.10
2018-11-29T07:02:58.177Z,4.20
2018-11-29T07:05:26.409Z,4.10
2018-11-29T07:07:54.629Z,3.90
2018-11-29T07:10:28.276Z,3.90
2018-11-29T07:12:56.519Z,3.80
2018-11-29T07:15:24.736Z,3.70
2018-11-29T07:17:52.952Z,3.80
2018-11-29T07:20:21.213Z,3.90
2018-11-29T07:22:49.424Z,4.00
2018-11-29T07:25:17.653Z,4.10
2018-11-29T07:27:46.114Z,4.20
2018-11-29T07:30:15.477Z,4.20
2018-11-29T07:32:43.732Z,4.10
2018-11-29T07:35:13.045Z,4.10
2018-11-29T07:37:41.344Z,4.10
2018-11-29T07:40:15.832Z,4.00
2018-11-29T07:42:44.519Z,4.00
2018-11-29T07:45:14.972Z,4.10
2018-11-29T07:47:43.284Z,4.00
2018-11-29T07:50:17.616Z,4.00
2018-11-29T07:52:45.832Z,4.00
2018-11-29T07:55:16.073Z,4.10
2018-11-29T07:57:44.739Z,4.20
2018-11-29T08:00:14.035Z,4.20
2018-11-29T08:02:42.260Z,4.20
2018-11-29T08:05:12.368Z,4.20
2018-11-29T08:07:47.581Z,4.30
2018-11-29T08:10:14.984Z,4.50
2018-11-29T08:12:43.199Z,4.60
2018-11-29T08:15:12.743Z,4.60
2018-11-29T08:17:40.957Z,4.60
2018-11-29T08:20:15.255Z,4.70
2018-11-29T08:22:43.476Z,4.80
2018-11-29T08:25:11.827Z,4.90
2018-11-29T08:27:40.044Z,5.00
2018-11-29T08:30:13.133Z,5.10
2018-11-29T08:32:41.356Z,5.20
2018-11-29T08:35:11.623Z,5.30
2018-11-29T08:37:40.797Z,5.30
2018-11-29T08:40:23.911Z,5.30
2018-11-29T08:42:52.119Z,5.30
2018-11-29T08:45:20.371Z,5.40
2018-11-29T08:47:48.566Z,5.50
2018-11-29T08:50:16.797Z,5.50
2018-11-29T08:52:45.840Z,5.60
2018-11-29T08:55:16.071Z,5.70
2018-11-29T08:57:44.628Z,5.90
2018-11-29T09:00:13.854Z,6.00
2018-11-29T09:02:42.037Z,6.10
2018-11-29T09:05:11.121Z,6.30
2018-11-29T09:07:39.353Z,6.40
2018-11-29T09:10:15.784Z,6.60
2018-11-29T09:12:43.975Z,6.70
2018-11-29T09:15:13.359Z,6.80
2018-11-29T09:17:41.814Z,6.90
2018-11-29T09:20:11.317Z,6.90
2018-11-29T09:22:39.520Z,7.00
2018-11-29T09:25:09.500Z,7.00
2018-11-29T09:27:37.706Z,7.00
2018-11-29T09:30:11.801Z,7.10
2018-11-29T09:32:40.152Z,7.20
2018-11-29T09:35:08.456Z,7.20
2018-11-29T09:37:36.820Z,7.30
2018-11-29T09:40:09.214Z,7.30
2018-11-29T09:42:37.570Z,7.30
2018-11-29T09:45:08.308Z,7.30
2018-11-29T09:47:36.521Z,7.50
2018-11-29T09:50:06.636Z,7.40
2018-11-29T09:52:34.845Z,7.50
2018-11-29T09:55:03.055Z,7.50
2018-11-29T09:57:31.248Z,7.50
2018-11-29T09:59:59.463Z,7.40
2018-11-29T10:02:27.666Z,7.50
2018-11-29T10:04:55.877Z,7.50
2018-11-29T10:07:24.073Z,7.50
2018-11-29T10:09:52.365Z,7.50
2018-11-29T10:12:20.533Z,7.50
2018-11-29T10:14:48.741Z,7.40
2018-11-29T10:17:16.944Z,7.40
2018-11-29T10:19:45.144Z,7.40
2018-11-29T10:22:13.921Z,7.40
2018-11-29T10:24:41.576Z,7.40
2018-11-29T10:27:09.780Z,7.40
2018-11-29T10:29:38.017Z,7.50
2018-11-29T10:32:06.215Z,7.50
2018-11-29T10:34:34.421Z,7.50
2018-11-29T10:37:02.625Z,7.50
2018-11-29T10:39:30.853Z,7.50
2018-11-29T10:41:59.052Z,7.50
2018-11-29T10:44:27.264Z,7.50
2018-11-29T10:46:55.459Z,7.50
2018-11-29T10:49:23.670Z,7.70
2018-11-29T10:51:51.887Z,7.80
2018-11-29T10:54:20.101Z,7.80
2018-11-29T10:56:48.293Z,7.70
2018-11-29T10:59:16.501Z,7.70
2018-11-29T11:01:44.722Z,7.70
2018-11-29T11:04:12.949Z,7.70
2018-11-29T11:06:41.172Z,7.80
2018-11-29T11:09:10.488Z,7.90
2018-11-29T11:11:38.697Z,8.10
2018-11-29T11:14:06.937Z,8.30
2018-11-29T11:16:35.129Z,8.30
2018-11-29T11:19:03.348Z,8.40
2018-11-29T11:21:31.561Z,8.50
2018-11-29T11:23:59.759Z,8.40
2018-11-29T11:26:27.995Z,8.40
2018-11-29T11:28:56.191Z,8.50
2018-11-29T11:31:30.851Z,8.60
2018-11-29T11:33:52.861Z,8.60
2018-11-29T11:36:21.063Z,8.70
2018-11-29T11:38:49.286Z,8.80
2018-11-29T11:41:17.488Z,8.80
2018-11-29T11:43:45.695Z,8.80
2018-11-29T11:46:13.909Z,8.80
2018-11-29T11:48:42.118Z,8.80
2018-11-29T11:51:10.332Z,8.90
2018-11-29T11:53:38.521Z,8.80
2018-11-29T11:56:06.726Z,8.80
2018-11-29T11:58:34.916Z,8.70
2018-11-29T12:01:03.121Z,8.70
2018-11-29T12:03:31.324Z,8.70
2018-11-29T12:05:59.520Z,8.70
2018-11-29T12:08:27.721Z,8.60
2018-11-29T12:10:55.932Z,8.50
2018-11-29T12:13:25.306Z,8.50
2018-11-29T12:15:53.509Z,8.50
2018-11-29T12:18:21.736Z,8.70
2018-11-29T12:20:49.949Z,8.60
2018-11-29T12:23:18.189Z,8.60
2018-11-29T12:25:46.416Z,8.60
2018-11-29T12:28:14.599Z,8.60
2018-11-29T12:30:45.503Z,8.70
2018-11-29T12:33:13.693Z,8.70
2018-11-29T12:35:41.900Z,8.70
2018-11-29T12:38:10.093Z,8.70
2018-11-29T12:40:38.316Z,8.70
2018-11-29T12:43:06.917Z,8.70
2018-11-29T12:45:35.241Z,8.70
2018-11-29T12:48:03.445Z,8.70
2018-11-29T12:50:31.811Z,8.80
2018-11-29T12:53:00.020Z,8.80
2018-11-29T12:55:28.232Z,8.70
2018-11-29T12:58:05.145Z,8.80
2018-11-29T13:00:25.356Z,8.80
2018-11-29T13:02:54.758Z,8.80
2018-11-29T13:05:22.979Z,8.80
2018-11-29T13:07:51.239Z,8.80
2018-11-29T13:10:24.194Z,8.90
2018-11-29T13:12:52.843Z,8.90
2018-11-29T13:15:24.472Z,8.80
2018-11-29T13:17:52.901Z,8.70
2018-11-29T13:20:21.149Z,8.70
2018-11-29T13:22:49.341Z,8.50
2018-11-29T13:25:21.412Z,8.70
2018-11-29T13:27:49.640Z,8.60
2018-11-29T13:30:20.876Z,8.50
2018-11-29T13:32:50.317Z,8.50
2018-11-29T13:35:20.199Z,8.50
2018-11-29T13:37:55.804Z,8.60
2018-11-29T13:40:24.048Z,8.60
2018-11-29T13:42:52.252Z,8.70
2018-11-29T13:45:20.690Z,8.70
2018-11-29T13:47:48.739Z,8.60
2018-11-29T13:50:17.621Z,8.60
2018-11-29T13:52:46.284Z,8.60
2018-11-29T13:55:15.316Z,8.50
2018-11-29T13:57:45.445Z,8.50
2018-11-29T14:00:15.069Z,8.40
2018-11-29T14:02:46.953Z,8.30
2018-11-29T14:05:12.232Z,8.30
2018-11-29T14:07:40.480Z,8.30
2018-11-29T14:10:10.705Z,8.40
2018-11-29T14:12:38.882Z,8.40
2018-11-29T14:15:10.237Z,8.40
2018-11-29T14:17:38.432Z,8.30
2018-11-29T14:20:07.905Z,8.40
2018-11-29T14:22:36.087Z,8.30
2018-11-29T14:25:04.641Z,8.30
2018-11-29T14:27:32.823Z,8.20
2018-11-29T14:30:01.027Z,8.10
2018-11-29T14:32:29.246Z,8.10
2018-11-29T14:34:57.423Z,8.10
2018-11-29T14:37:25.637Z,8.10
2018-11-29T14:39:53.836Z,8.10
2018-11-29T14:42:22.055Z,8.10
2018-11-29T14:44:50.253Z,8.00
2018-11-29T14:47:18.457Z,8.10
2018-11-29T14:49:46.652Z,8.10
2018-11-29T14:52:15.004Z,8.10
2018-11-29T14:54:45.177Z,8.10
2018-11-29T14:57:13.385Z,8.00
2018-11-29T14:59:41.586Z,8.00
2018-11-29T15:02:09.800Z,8.00
2018-11-29T15:04:38.029Z,7.80
2018-11-29T15:07:06.776Z,7.70
2018-11-29T15:09:34.965Z,7.60
2018-11-29T15:12:03.165Z,7.60
2018-11-29T15:14:31.352Z,7.60
2018-11-29T15:16:59.548Z,7.50
2018-11-29T15:19:27.741Z,7.40
2018-11-29T15:21:55.952Z,7.40
2018-11-29T15:24:24.153Z,7.30
2018-11-29T15:26:52.348Z,7.20
2018-11-29T15:29:20.557Z,7.20
2018-11-29T15:31:48.772Z,7.10
2018-11-29T15:34:16.957Z,7.10
2018-11-29T15:36:45.149Z,7.00
2018-11-29T15:39:13.348Z,6.90
2018-11-29T15:41:41.570Z,6.90
2018-11-29T15:44:09.758Z,6.80
2018-11-29T15:46:38.019Z,6.70
2018-11-29T15:49:06.228Z,6.60
2018-11-29T15:51:35.090Z,6.60
2018-11-29T15:54:03.276Z,6.60
2018-11-29T15:56:31.490Z,6.60
2018-11-29T15:58:59.690Z,6.70
2018-11-29T16:01:27.922Z,6.80
2018-11-29T16:03:56.125Z,6.80
2018-11-29T16:06:24.375Z,6.90
2018-11-29T16:08:52.568Z,6.80
2018-11-29T16:11:20.765Z,6.80
2018-11-29T16:13:48.956Z,6.70
2018-11-29T16:16:17.163Z,6.50
2018-11-29T16:18:45.339Z,6.60
2018-11-29T16:21:13.543Z,6.50
2018-11-29T16:23:41.799Z,6.40
2018-11-29T16:26:10.005Z,6.40
2018-11-29T16:28:38.190Z,6.30
2018-11-29T16:31:07.589Z,6.30
2018-11-29T16:33:37.411Z,6.30
2018-11-29T16:36:06.995Z,6.20
2018-11-29T16:38:35.184Z,6.20
2018-11-29T16:41:03.380Z,6.00
2018-11-29T16:43:31.603Z,5.90
2018-11-29T16:45:59.794Z,5.80
2018-11-29T16:48:27.971Z,5.90
2018-11-29T16:50:56.144Z,6.00
2018-11-29T16:53:24.341Z,6.00
2018-11-29T16:55:52.867Z,6.10
2018-11-29T16:58:26.112Z,6.30
2018-11-29T17:00:54.300Z,6.30
2018-11-29T17:03:22.536Z,6.20
2018-11-29T17:05:50.737Z,6.10
2018-11-29T17:08:18.949Z,6.00
2018-11-29T17:10:47.139Z,6.00
2018-11-29T17:13:16.792Z,5.90
2018-11-29T17:15:44.972Z,5.90
2018-11-29T17:18:13.171Z,5.90
2018-11-29T17:20:41.375Z,5.70
2018-11-29T17:23:10.622Z,5.70
2018-11-29T17:25:38.819Z,5.60
2018-11-29T17:28:07.364Z,5.50
2018-11-29T17:30:36.477Z,5.40
2018-11-29T17:33:05.087Z,5.40
2018-11-29T17:35:33.277Z,5.40
2018-11-29T17:38:01.480Z,5.40
2018-11-29T17:40:29.699Z,5.30
2018-11-29T17:42:57.974Z,5.50
2018-11-29T17:45:29.180Z,5.50
2018-11-29T17:48:00.644Z,5.50
2018-11-29T17:50:33.274Z,5.50
2018-11-29T17:53:01.476Z,5.50
2018-11-29T17:55:29.659Z,5.50
2018-11-29T17:57:57.876Z,5.60
2018-11-29T18:00:27.240Z,5.60
2018-11-29T18:02:55.440Z,5.60
2018-11-29T18:05:23.636Z,5.60
2018-11-29T18:07:51.830Z,5.60
2018-11-29T18:10:22.192Z,5.70
2018-11-29T18:12:52.936Z,5.70
2018-11-29T18:15:23.565Z,5.60
2018-11-29T18:17:51.777Z,5.60
2018-11-29T18:20:19.967Z,5.60
2018-11-29T18:22:48.167Z,5.60
2018-11-29T18:25:16.968Z,5.70
2018-11-29T18:27:47.407Z,5.70
2018-11-29T18:30:16.700Z,5.60
2018-11-29T18:32:44.905Z,5.60
2018-11-29T18:35:13.708Z,5.60
2018-11-29T18:37:41.949Z,5.60
2018-11-29T18:40:17.192Z,5.60
2018-11-29T18:42:46.715Z,5.60
2018-11-29T18:45:16.492Z,5.70
2018-11-29T18:47:45.614Z,5.70
2018-11-29T18:50:17.044Z,5.80
2018-11-29T18:52:45.252Z,5.90
2018-11-29T18:55:13.445Z,5.90
2018-11-29T18:57:41.657Z,6.00
2018-11-29T19:00:12.312Z,6.10
2018-11-29T19:02:40.594Z,6.10
2018-11-29T19:05:09.273Z,6.20
2018-11-29T19:07:37.548Z,6.20
2018-11-29T19:10:10.021Z,6.20
2018-11-29T19:12:38.821Z,6.20
2018-11-29T19:15:09.547Z,6.20
2018-11-29T19:17:37.963Z,6.10
2018-11-29T19:20:08.469Z,6.10
2018-11-29T19:22:36.677Z,6.10
2018-11-29T19:25:06.575Z,6.20
2018-11-29T19:27:34.773Z,6.10
2018-11-29T19:30:04.379Z,6.10
2018-11-29T19:32:31.265Z,6.00
2018-11-29T19:34:59.465Z,5.90
2018-11-29T19:37:27.673Z,5.90
2018-11-29T19:39:55.947Z,5.80
2018-11-29T19:42:24.165Z,5.70
2018-11-29T19:44:52.445Z,5.60
2018-11-29T19:47:20.665Z,5.50
2018-11-29T19:49:48.860Z,5.40
2018-11-29T19:52:17.044Z,5.50
2018-11-29T19:54:45.249Z,5.40
2018-11-29T19:57:13.464Z,5.30
2018-11-29T19:59:41.663Z,5.30
2018-11-29T20:02:09.845Z,5.30
2018-11-29T20:04:38.145Z,5.40
2018-11-29T20:07:06.376Z,5.30
2018-11-29T20:09:34.577Z,5.20
2018-11-29T20:12:02.878Z,5.30
2018-11-29T20:14:31.115Z,5.20
2018-11-29T20:16:59.322Z,5.00
2018-11-29T20:19:28.492Z,4.90
2018-11-29T20:21:57.056Z,4.80
2018-11-29T20:24:26.388Z,4.80
2018-11-29T20:27:00.490Z,4.90
2018-11-29T20:29:30.937Z,4.90
2018-11-29T20:31:59.224Z,4.70
2018-11-29T20:34:30.517Z,4.70
2018-11-29T20:40:17.331Z,4.60
2018-11-29T20:46:01.638Z,4.50
2018-11-29T20:48:43.484Z,4.60
2018-11-29T20:51:11.706Z,4.60
2018-11-29T20:53:40.377Z,4.50
2018-11-29T20:56:10.356Z,4.60
2018-11-29T20:58:50.429Z,4.50
2018-11-29T21:01:19.687Z,4.60
2018-11-29T21:03:49.842Z,4.50
2018-11-29T21:06:18.044Z,4.40
2018-11-29T21:08:46.232Z,4.10
2018-11-29T21:11:14.513Z,4.00
2018-11-29T21:13:42.727Z,4.00
2018-11-29T21:16:11.015Z,3.90
2018-11-29T21:18:39.249Z,4.00
2018-11-29T21:21:07.501Z,3.80
2018-11-29T21:23:35.716Z,3.60
2018-11-29T21:26:03.952Z,3.60
2018-11-29T21:28:32.348Z,3.50
2018-11-29T21:31:00.650Z,3.50
2018-11-29T21:33:28.861Z,3.50
2018-11-29T21:35:57.068Z,3.60
2018-11-29T21:38:25.267Z,3.60
2018-11-29T21:40:55.341Z,3.60
2018-11-29T21:43:23.544Z,3.60
2018-11-29T21:45:55.818Z,3.70
2018-11-29T21:48:25.070Z,3.70
2018-11-29T21:50:53.505Z,3.70
2018-11-29T21:53:21.698Z,3.70
2018-11-29T21:55:49.905Z,3.60
2018-11-29T21:58:18.684Z,3.60
2018-11-29T22:03:43.626Z,3.60
2018-11-29T22:06:13.703Z,3.60
2018-11-29T22:08:43.494Z,3.60
2018-11-29T22:11:12.980Z,3.60
2018-11-29T22:13:41.193Z,3.60
2018-11-29T22:16:09.420Z,3.50
2018-11-29T22:18:37.640Z,3.40
2018-11-29T22:21:06.892Z,3.50
2018-11-29T22:23:36.281Z,3.60
2018-11-29T22:26:07.239Z,3.70
2018-11-29T22:28:35.444Z,3.60
2018-11-29T22:31:03.692Z,3.60
2018-11-29T22:33:31.913Z,3.70
2018-11-29T22:36:00.145Z,4.00
2018-11-29T22:38:28.354Z,4.30
2018-11-29T22:40:57.441Z,4.40
2018-11-29T22:43:26.849Z,4.60
2018-11-29T22:45:56.144Z,4.70
2018-11-29T22:48:25.204Z,4.90
2018-11-29T22:50:53.437Z,5.10
2018-11-29T22:53:29.907Z,5.20
2018-11-29T22:55:58.264Z,5.30
2018-11-29T22:58:27.845Z,5.50
2018-11-29T23:00:57.069Z,5.70
2018-11-29T23:03:43.769Z,5.70
2018-11-29T23:08:54.187Z,6.00
2018-11-29T23:11:22.578Z,5.90
2018-11-29T23:13:50.946Z,5.90
2018-11-29T23:16:25.766Z,5.90
2018-11-29T23:18:54.147Z,6.00
2018-11-29T23:21:22.465Z,5.90
2018-11-29T23:23:50.825Z,5.80
2018-11-29T23:26:19.821Z,5.70
2018-11-29T23:28:48.289Z,5.60
2018-11-29T23:31:16.644Z,5.80
2018-11-29T23:33:44.965Z,5.80
2018-11-29T23:36:15.556Z,5.70
2018-11-29T23:38:45.969Z,5.90
2018-11-29T23:41:20.761Z,6.20
2018-11-29T23:43:50.675Z,6.30
2018-11-29T23:46:18.988Z,6.40
2018-11-29T23:48:48.644Z,6.50
2018-11-29T23:51:17.013Z,6.80
2018-11-29T23:53:45.362Z,6.90
2018-11-29T23:56:13.688Z,6.90
